createdAt,value
2022-09-02T00:00:26.194Z,5.40
2022-09-02T00:01:26.125Z,5.20
2022-09-02T00:02:26.197Z,4.80
2022-09-02T00:03:26.386Z,5.30
2022-09-02T00:04:26.104Z,5.50
2022-09-02T00:05:26.023Z,5.50
2022-09-02T00:06:26.014Z,5.50
2022-09-02T00:07:26.113Z,5.30
2022-09-02T00:08:26.045Z,5.30
2022-09-02T00:09:25.985Z,5.30
2022-09-02T00:10:26.020Z,5.30
2022-09-02T00:11:25.965Z,5.10
2022-09-02T00:12:25.959Z,5.10
2022-09-02T00:13:25.957Z,4.90
2022-09-02T00:14:25.937Z,5.10
2022-09-02T00:15:25.930Z,5.20
2022-09-02T00:16:25.945Z,5.10
2022-09-02T00:17:25.901Z,5.20
2022-09-02T00:18:26.113Z,5.70
2022-09-02T00:19:25.872Z,4.80
2022-09-02T00:20:25.902Z,5.30
2022-09-02T00:21:25.853Z,5.20
2022-09-02T00:22:25.832Z,5.30
2022-09-02T00:23:27.412Z,4.80
2022-09-02T00:24:25.963Z,5.00
2022-09-02T00:25:25.781Z,5.00
2022-09-02T00:26:25.780Z,5.00
2022-09-02T00:27:25.797Z,5.20
2022-09-02T00:28:25.735Z,5.30
2022-09-02T00:29:25.868Z,5.10
2022-09-02T00:30:25.709Z,5.10
2022-09-02T00:31:25.856Z,5.10
2022-09-02T00:32:25.680Z,5.30
2022-09-02T00:33:25.684Z,5.30
2022-09-02T00:34:25.719Z,5.50
2022-09-02T00:35:25.664Z,5.10
2022-09-02T00:36:25.660Z,4.90
2022-09-02T00:37:25.645Z,5.10
2022-09-02T00:38:25.629Z,5.40
2022-09-02T00:39:25.680Z,5.10
2022-09-02T00:40:25.619Z,5.60
2022-09-02T00:41:25.674Z,5.70
2022-09-02T00:42:25.547Z,5.30
2022-09-02T00:43:25.535Z,5.40
2022-09-02T00:44:25.526Z,5.00
2022-09-02T00:45:25.553Z,5.70
2022-09-02T00:46:25.500Z,5.30
2022-09-02T00:47:25.514Z,5.30
2022-09-02T00:48:25.485Z,5.10
2022-09-02T00:49:25.513Z,5.20
2022-09-02T00:50:25.493Z,4.90
2022-09-02T00:51:25.592Z,5.30
2022-09-02T00:52:25.459Z,5.20
2022-09-02T00:53:25.414Z,5.10
2022-09-02T00:54:25.424Z,5.20
2022-09-02T00:55:25.383Z,5.40
2022-09-02T00:56:25.569Z,5.00
2022-09-02T00:57:25.363Z,5.30
2022-09-02T00:58:25.361Z,5.10
2022-09-02T00:59:25.358Z,5.40
2022-09-02T01:00:25.320Z,5.20
2022-09-02T01:01:26.459Z,5.50
2022-09-02T01:02:25.462Z,5.40
2022-09-02T01:06:02.233Z,4.70
2022-09-02T01:06:41.213Z,4.90
2022-09-02T01:07:41.211Z,5.30
2022-09-02T01:08:41.180Z,5.30
2022-09-02T01:09:41.182Z,5.40
2022-09-02T01:10:41.148Z,5.80
2022-09-02T01:11:41.124Z,5.10
2022-09-02T01:12:41.197Z,4.90
2022-09-02T01:13:41.140Z,5.30
2022-09-02T01:14:41.291Z,4.90
2022-09-02T01:15:41.106Z,5.10
2022-09-02T01:16:42.191Z,5.00
2022-09-02T01:17:41.098Z,5.00
2022-09-02T01:18:41.045Z,5.30
2022-09-02T01:19:41.025Z,4.80
2022-09-02T01:20:41.030Z,5.60
2022-09-02T01:21:41.000Z,5.00
2022-09-02T01:22:41.030Z,4.70
2022-09-02T01:23:40.974Z,4.80
2022-09-02T01:24:41.007Z,5.10
2022-09-02T01:25:40.966Z,5.30
2022-09-02T01:26:40.931Z,5.10
2022-09-02T01:27:40.938Z,5.60
2022-09-02T01:28:40.918Z,5.00
2022-09-02T01:29:41.018Z,5.00
2022-09-02T01:30:40.939Z,5.40
2022-09-02T01:31:40.936Z,5.20
2022-09-02T01:32:40.900Z,5.10
2022-09-02T01:33:40.863Z,5.50
2022-09-02T01:34:40.866Z,5.60
2022-09-02T01:35:40.845Z,5.30
2022-09-02T01:36:40.820Z,5.40
2022-09-02T01:37:40.797Z,5.00
2022-09-02T01:38:41.976Z,4.70
2022-09-02T01:39:40.802Z,5.30
2022-09-02T01:40:40.784Z,5.00
2022-09-02T01:41:40.754Z,5.00
2022-09-02T01:42:40.789Z,5.00
2022-09-02T01:43:40.726Z,5.40
2022-09-02T01:44:40.786Z,4.90
2022-09-02T01:45:40.714Z,5.30
2022-09-02T01:46:40.760Z,4.80
2022-09-02T01:47:40.685Z,4.50
2022-09-02T01:48:40.663Z,4.90
2022-09-02T01:49:40.664Z,5.30
2022-09-02T01:50:45.064Z,4.60
2022-09-02T01:51:41.772Z,5.10
2022-09-02T01:52:40.584Z,4.90
2022-09-02T01:53:40.604Z,4.90
2022-09-02T01:54:40.614Z,4.80
2022-09-02T01:55:40.594Z,4.80
2022-09-02T01:56:40.554Z,4.90
2022-09-02T01:57:40.581Z,4.80
2022-09-02T01:58:40.511Z,5.00
2022-09-02T01:59:40.521Z,4.90
2022-09-02T02:00:40.535Z,4.70
2022-09-02T02:01:40.523Z,5.00
2022-09-02T02:02:40.481Z,4.50
2022-09-02T02:03:40.465Z,4.90
2022-09-02T02:04:40.485Z,4.50
2022-09-02T02:05:40.440Z,4.70
2022-09-02T02:06:40.491Z,4.70
2022-09-02T02:07:40.412Z,5.00
2022-09-02T02:08:40.399Z,4.70
2022-09-02T02:09:40.406Z,4.90
2022-09-02T02:10:40.397Z,4.90
2022-09-02T02:11:40.409Z,4.90
2022-09-02T02:12:40.349Z,4.60
2022-09-02T02:13:40.318Z,4.60
2022-09-02T02:14:40.329Z,4.50
2022-09-02T02:15:40.339Z,4.30
2022-09-02T02:16:40.386Z,4.40
2022-09-02T02:17:40.335Z,4.10
2022-09-02T02:18:40.255Z,4.90
2022-09-02T02:19:40.437Z,4.40
2022-09-02T02:20:40.236Z,4.80
2022-09-02T02:21:40.216Z,4.40
2022-09-02T02:22:40.241Z,4.70
2022-09-02T02:23:40.244Z,4.40
2022-09-02T02:24:40.232Z,4.10
2022-09-02T02:25:40.228Z,4.60
2022-09-02T02:26:40.255Z,4.60
2022-09-02T02:27:40.185Z,4.60
2022-09-02T02:28:40.345Z,4.40
2022-09-02T02:29:40.134Z,4.20
2022-09-02T02:30:40.185Z,4.40
2022-09-02T02:31:40.264Z,4.20
2022-09-02T02:32:40.167Z,4.30
2022-09-02T02:33:40.113Z,4.20
2022-09-02T02:34:40.064Z,4.00
2022-09-02T02:35:40.066Z,4.60
2022-09-02T02:36:40.036Z,4.40
2022-09-02T02:37:40.072Z,4.30
2022-09-02T02:38:40.070Z,4.20
2022-09-02T02:39:39.980Z,4.80
2022-09-02T02:40:40.048Z,4.10
2022-09-02T02:41:40.036Z,4.10
2022-09-02T02:42:39.952Z,4.30
2022-09-02T02:43:39.971Z,4.40
2022-09-02T02:44:39.922Z,4.10
2022-09-02T02:45:39.911Z,4.30
2022-09-02T02:46:40.009Z,4.30
2022-09-02T02:47:40.000Z,4.40
2022-09-02T02:48:39.885Z,4.60
2022-09-02T02:49:39.887Z,4.50
2022-09-02T02:50:39.860Z,4.30
2022-09-02T02:51:39.829Z,4.20
2022-09-02T02:52:39.893Z,4.20
2022-09-02T02:53:39.804Z,4.40
2022-09-02T02:54:39.863Z,4.00
2022-09-02T02:55:39.788Z,4.40
2022-09-02T02:56:39.821Z,3.90
2022-09-02T02:57:39.837Z,4.50
2022-09-02T02:58:39.767Z,4.50
2022-09-02T02:59:39.820Z,4.60
2022-09-02T03:00:39.736Z,4.20
2022-09-02T03:01:39.782Z,4.20
2022-09-02T03:02:39.933Z,4.40
2022-09-02T03:03:39.668Z,4.40
2022-09-02T03:04:39.698Z,4.50
2022-09-02T03:05:39.707Z,4.20
2022-09-02T03:06:39.646Z,4.60
2022-09-02T03:07:39.666Z,4.70
2022-09-02T03:08:39.625Z,4.30
2022-09-02T03:09:39.629Z,4.10
2022-09-02T03:10:39.671Z,4.30
2022-09-02T03:11:39.571Z,4.40
2022-09-02T03:12:39.553Z,4.20
2022-09-02T03:13:39.554Z,4.50
2022-09-02T03:14:39.556Z,4.20
2022-09-02T03:15:39.646Z,4.30
2022-09-02T03:16:39.522Z,4.40
2022-09-02T03:17:39.532Z,4.60
2022-09-02T03:18:39.532Z,4.30
2022-09-02T03:19:39.496Z,4.10
2022-09-02T03:20:39.462Z,4.50
2022-09-02T03:21:39.484Z,4.80
2022-09-02T03:22:39.422Z,4.80
2022-09-02T03:23:39.421Z,4.30
2022-09-02T03:24:39.420Z,4.60
2022-09-02T03:25:39.471Z,4.50
2022-09-02T03:26:39.381Z,4.10
2022-09-02T03:27:39.410Z,4.30
2022-09-02T03:28:39.367Z,4.50
2022-09-02T03:29:39.350Z,4.50
2022-09-02T03:30:39.331Z,4.50
2022-09-02T03:31:39.427Z,4.10
2022-09-02T03:32:39.308Z,4.40
2022-09-02T03:33:39.347Z,4.40
2022-09-02T03:34:39.289Z,4.20
2022-09-02T03:35:39.269Z,4.30
2022-09-02T03:36:39.255Z,4.20
2022-09-02T03:37:39.248Z,4.60
2022-09-02T03:38:39.228Z,4.10
2022-09-02T03:39:39.275Z,4.40
2022-09-02T03:40:39.466Z,4.60
2022-09-02T03:41:39.191Z,4.40
2022-09-02T03:42:39.275Z,4.30
2022-09-02T03:43:39.155Z,4.20
2022-09-02T03:44:39.178Z,4.20
2022-09-02T03:45:39.442Z,4.40
2022-09-02T03:46:39.284Z,4.10
2022-09-02T03:47:39.113Z,4.20
2022-09-02T03:48:39.120Z,4.30
2022-09-02T03:49:39.096Z,4.70
2022-09-02T03:50:39.084Z,4.60
2022-09-02T03:51:39.066Z,4.40
2022-09-02T03:52:39.041Z,4.70
2022-09-02T03:53:39.057Z,4.70
2022-09-02T03:54:39.063Z,4.20
2022-09-02T03:55:39.235Z,4.30
2022-09-02T03:56:38.996Z,4.40
2022-09-02T03:57:38.978Z,4.40
2022-09-02T03:58:39.039Z,4.20
2022-09-02T03:59:38.956Z,4.40
2022-09-02T04:00:39.008Z,4.30
2022-09-02T04:01:38.994Z,4.50
2022-09-02T04:02:39.095Z,4.50
2022-09-02T04:03:38.903Z,4.60
2022-09-02T04:04:38.946Z,4.10
2022-09-02T04:05:39.768Z,4.40
2022-09-02T04:06:38.872Z,4.50
2022-09-02T04:07:38.857Z,4.50
2022-09-02T04:08:38.901Z,4.50
2022-09-02T04:09:40.002Z,4.30
2022-09-02T04:10:38.881Z,4.10
2022-09-02T04:11:38.939Z,4.50
2022-09-02T04:12:38.793Z,4.30
2022-09-02T04:13:38.831Z,4.60
2022-09-02T04:14:38.799Z,4.50
2022-09-02T04:15:38.853Z,4.50
2022-09-02T04:16:38.750Z,4.60
2022-09-02T04:17:38.716Z,4.20
2022-09-02T04:18:38.710Z,4.80
2022-09-02T04:19:38.746Z,4.60
2022-09-02T04:20:38.703Z,4.40
2022-09-02T04:21:38.718Z,4.40
2022-09-02T04:22:38.705Z,4.40
2022-09-02T04:23:38.638Z,4.30
2022-09-02T04:24:38.638Z,4.70
2022-09-02T04:25:38.627Z,4.40
2022-09-02T04:26:44.899Z,4.10
2022-09-02T04:27:39.587Z,4.50
2022-09-02T04:28:38.598Z,4.40
2022-09-02T04:29:38.567Z,4.30
2022-09-02T04:30:38.596Z,4.00
2022-09-02T04:31:38.640Z,4.40
2022-09-02T04:32:40.865Z,4.40
2022-09-02T04:33:38.524Z,4.60
2022-09-02T04:34:38.495Z,4.60
2022-09-02T04:35:38.486Z,4.40
2022-09-02T04:36:38.483Z,4.50
2022-09-02T04:37:38.475Z,4.50
2022-09-02T04:38:38.462Z,4.60
2022-09-02T04:39:38.477Z,4.70
2022-09-02T04:40:39.250Z,4.30
2022-09-02T04:41:38.416Z,4.40
2022-09-02T04:42:38.478Z,5.00
2022-09-02T04:43:38.393Z,4.40
2022-09-02T04:44:38.384Z,4.40
2022-09-02T04:45:38.372Z,4.40
2022-09-02T04:46:38.450Z,4.70
2022-09-02T04:47:38.337Z,5.00
2022-09-02T04:48:38.390Z,4.60
2022-09-02T04:49:38.301Z,4.70
2022-09-02T04:50:38.559Z,5.20
2022-09-02T04:51:38.270Z,4.30
2022-09-02T04:52:38.316Z,5.10
2022-09-02T04:53:38.260Z,4.90
2022-09-02T04:54:38.294Z,4.50
2022-09-02T04:55:38.230Z,4.60
2022-09-02T04:56:38.327Z,4.40
2022-09-02T04:57:38.214Z,4.60
2022-09-02T04:58:38.219Z,4.50
2022-09-02T04:59:38.226Z,4.40
2022-09-02T05:00:38.311Z,4.80
2022-09-02T05:01:38.283Z,4.50
2022-09-02T05:02:38.239Z,4.50
2022-09-02T05:03:38.167Z,4.70
2022-09-02T05:04:38.130Z,4.60
2022-09-02T05:05:38.160Z,4.30
2022-09-02T05:06:41.995Z,4.60
2022-09-02T05:07:39.087Z,4.50
2022-09-02T05:08:38.138Z,4.50
2022-09-02T05:09:38.055Z,4.00
2022-09-02T05:10:38.083Z,4.60
2022-09-02T05:11:38.060Z,4.40
2022-09-02T05:12:38.005Z,4.50
2022-09-02T05:13:38.026Z,4.20
2022-09-02T05:14:37.991Z,4.30
2022-09-02T05:15:38.016Z,4.70
2022-09-02T05:16:37.964Z,4.50
2022-09-02T05:17:37.964Z,4.30
2022-09-02T05:18:38.011Z,4.70
2022-09-02T05:19:37.942Z,4.80
2022-09-02T05:20:37.935Z,4.20
2022-09-02T05:21:37.913Z,4.40
2022-09-02T05:22:37.892Z,4.50
2022-09-02T05:23:37.896Z,4.10
2022-09-02T05:24:37.853Z,4.20
2022-09-02T05:25:37.844Z,4.50
2022-09-02T05:26:37.924Z,4.20
2022-09-02T05:27:37.814Z,4.40
2022-09-02T05:28:37.862Z,4.30
2022-09-02T05:29:37.802Z,3.80
2022-09-02T05:30:37.804Z,4.50
2022-09-02T05:31:37.783Z,4.50
2022-09-02T05:32:38.220Z,4.30
2022-09-02T05:33:37.843Z,4.30
2022-09-02T05:34:37.757Z,4.00
2022-09-02T05:35:37.739Z,4.50
2022-09-02T05:36:38.716Z,3.90
2022-09-02T05:37:37.740Z,4.80
2022-09-02T05:38:37.689Z,4.60
2022-09-02T05:39:37.677Z,4.60
2022-09-02T05:40:37.707Z,4.30
2022-09-02T05:41:37.677Z,4.10
2022-09-02T05:42:37.627Z,4.00
2022-09-02T05:43:37.679Z,4.40
2022-09-02T05:44:37.595Z,4.00
2022-09-02T05:45:37.681Z,4.30
2022-09-02T05:46:37.697Z,4.40
2022-09-02T05:47:37.563Z,4.00
2022-09-02T05:48:37.699Z,4.30
2022-09-02T05:49:37.535Z,4.20
2022-09-02T05:50:37.536Z,3.90
2022-09-02T05:51:37.515Z,4.20
2022-09-02T05:52:37.495Z,4.10
2022-09-02T05:53:37.543Z,4.00
2022-09-02T05:54:37.516Z,4.10
2022-09-02T05:55:37.494Z,4.20
2022-09-02T05:56:37.493Z,3.80
2022-09-02T05:57:37.424Z,3.80
2022-09-02T05:58:37.433Z,3.70
2022-09-02T05:59:37.398Z,3.80
2022-09-02T06:00:37.449Z,3.80
2022-09-02T06:01:37.447Z,3.90
2022-09-02T06:02:37.452Z,3.70
2022-09-02T06:03:37.363Z,3.60
2022-09-02T06:04:37.344Z,3.50
2022-09-02T06:05:37.342Z,3.50
2022-09-02T06:06:37.323Z,3.70
2022-09-02T06:07:37.293Z,3.30
2022-09-02T06:08:37.281Z,4.10
2022-09-02T06:09:37.333Z,3.60
2022-09-02T06:10:37.262Z,3.60
2022-09-02T06:11:37.266Z,3.60
2022-09-02T06:12:41.908Z,3.60
2022-09-02T06:13:38.317Z,3.70
2022-09-02T06:14:37.363Z,3.60
2022-09-02T06:15:37.237Z,3.60
2022-09-02T06:16:37.259Z,3.40
2022-09-02T06:17:37.186Z,3.30
2022-09-02T06:18:37.160Z,3.80
2022-09-02T06:19:37.167Z,3.40
2022-09-02T06:20:37.178Z,3.30
2022-09-02T06:21:37.155Z,3.30
2022-09-02T06:22:37.125Z,3.50
2022-09-02T06:23:37.125Z,3.90
2022-09-02T06:24:37.133Z,3.50
2022-09-02T06:25:37.076Z,3.10
2022-09-02T06:26:37.124Z,3.40
2022-09-02T06:27:37.035Z,3.40
2022-09-02T06:28:37.036Z,3.40
2022-09-02T06:29:37.026Z,3.40
2022-09-02T06:30:37.023Z,3.50
2022-09-02T06:31:37.019Z,3.30
2022-09-02T06:32:36.996Z,3.30
2022-09-02T06:33:36.975Z,3.40
2022-09-02T06:34:37.036Z,3.30
2022-09-02T06:35:36.936Z,3.80
2022-09-02T06:36:36.998Z,3.60
2022-09-02T06:37:36.916Z,3.50
2022-09-02T06:38:36.937Z,3.10
2022-09-02T06:39:37.036Z,3.20
2022-09-02T06:40:36.927Z,3.40
2022-09-02T06:41:36.940Z,3.10
2022-09-02T06:42:36.866Z,3.10
2022-09-02T06:43:41.353Z,3.10
2022-09-02T06:44:37.845Z,3.10
2022-09-02T06:45:36.832Z,3.10
2022-09-02T06:46:36.918Z,3.60
2022-09-02T06:47:36.822Z,3.20
2022-09-02T06:48:36.789Z,3.60
2022-09-02T06:49:36.750Z,3.30
2022-09-02T06:50:36.771Z,3.50
2022-09-02T06:51:36.762Z,3.20
2022-09-02T06:52:36.773Z,3.20
2022-09-02T06:53:36.741Z,3.20
2022-09-02T06:54:36.708Z,3.20
2022-09-02T06:55:36.678Z,3.60
2022-09-02T06:56:36.734Z,3.60
2022-09-02T06:57:36.665Z,3.70
2022-09-02T06:58:36.715Z,3.10
2022-09-02T06:59:36.673Z,3.20
2022-09-02T07:00:36.738Z,3.40
2022-09-02T07:01:36.811Z,3.80
2022-09-02T07:02:36.602Z,3.40
2022-09-02T07:03:36.623Z,3.90
2022-09-02T07:04:36.599Z,3.40
2022-09-02T07:05:36.564Z,3.30
2022-09-02T07:06:36.592Z,3.30
2022-09-02T07:07:36.530Z,3.00
2022-09-02T07:08:36.556Z,3.10
2022-09-02T07:09:36.528Z,3.10
2022-09-02T07:10:36.507Z,3.00
2022-09-02T07:11:36.467Z,2.90
2022-09-02T07:12:36.469Z,3.40
2022-09-02T07:13:36.495Z,3.00
2022-09-02T07:14:36.446Z,3.00
2022-09-02T07:15:36.451Z,3.00
2022-09-02T07:16:36.579Z,2.80
2022-09-02T07:17:36.405Z,2.70
2022-09-02T07:18:37.033Z,2.80
2022-09-02T07:19:36.424Z,3.10
2022-09-02T07:20:36.379Z,2.90
2022-09-02T07:21:36.351Z,3.10
2022-09-02T07:22:36.349Z,2.70
2022-09-02T07:23:40.531Z,2.60
2022-09-02T07:24:36.336Z,2.90
2022-09-02T07:25:36.284Z,2.80
2022-09-02T07:26:36.403Z,2.80
2022-09-02T07:27:36.282Z,2.60
2022-09-02T07:28:36.332Z,2.60
2022-09-02T07:29:36.290Z,2.80
2022-09-02T07:30:36.299Z,2.40
2022-09-02T07:31:36.211Z,2.60
2022-09-02T07:32:36.238Z,2.90
2022-09-02T07:33:36.247Z,2.80
2022-09-02T07:34:36.247Z,2.50
2022-09-02T07:35:36.173Z,2.60
2022-09-02T07:36:36.144Z,2.80
2022-09-02T07:37:36.216Z,2.40
2022-09-02T07:38:36.185Z,2.70
2022-09-02T07:39:36.805Z,2.90
2022-09-02T07:40:36.201Z,2.60
2022-09-02T07:41:36.082Z,2.80
2022-09-02T07:42:36.161Z,2.70
2022-09-02T07:43:36.051Z,2.90
2022-09-02T07:44:36.121Z,2.80
2022-09-02T07:45:36.102Z,2.40
2022-09-02T07:46:36.019Z,2.50
2022-09-02T07:47:36.053Z,3.00
2022-09-02T07:48:36.008Z,2.70
2022-09-02T07:50:36.960Z,2.70
2022-09-02T07:51:35.996Z,2.50
2022-09-02T07:52:35.949Z,2.80
2022-09-02T07:53:35.959Z,2.70
2022-09-02T07:54:35.958Z,2.40
2022-09-02T07:55:35.930Z,2.80
2022-09-02T07:56:35.930Z,2.90
2022-09-02T07:57:35.877Z,3.00
2022-09-02T07:58:35.868Z,2.70
2022-09-02T07:59:35.859Z,2.70
2022-09-02T08:00:35.866Z,2.90
2022-09-02T08:01:35.928Z,2.50
2022-09-02T08:02:35.851Z,2.80
2022-09-02T08:03:35.815Z,3.00
2022-09-02T08:04:35.785Z,2.70
2022-09-02T08:05:35.806Z,3.30
2022-09-02T08:06:35.755Z,2.80
2022-09-02T08:07:35.743Z,2.50
2022-09-02T08:08:35.743Z,2.40
2022-09-02T08:09:35.758Z,2.50
2022-09-02T08:10:35.754Z,2.50
2022-09-02T08:11:35.714Z,2.50
2022-09-02T08:12:35.719Z,2.60
2022-09-02T08:13:35.665Z,2.50
2022-09-02T08:14:35.642Z,2.40
2022-09-02T08:15:35.743Z,2.30
2022-09-02T08:16:35.815Z,2.40
2022-09-02T08:17:35.660Z,2.30
2022-09-02T08:18:35.602Z,2.30
2022-09-02T08:19:35.629Z,2.40
2022-09-02T08:20:35.621Z,2.10
2022-09-02T08:21:35.601Z,2.30
2022-09-02T08:22:35.593Z,2.20
2022-09-02T08:23:37.652Z,2.50
2022-09-02T08:24:35.546Z,2.30
2022-09-02T08:25:35.512Z,2.20
2022-09-02T08:26:35.509Z,2.20
2022-09-02T08:27:35.510Z,2.20
2022-09-02T08:28:35.582Z,2.30
2022-09-02T08:29:35.513Z,2.30
2022-09-02T08:30:35.462Z,2.30
2022-09-02T08:31:35.548Z,2.30
2022-09-02T08:32:35.434Z,2.20
2022-09-02T08:33:35.439Z,2.10
2022-09-02T08:34:35.398Z,2.10
2022-09-02T08:35:35.380Z,2.10
2022-09-02T08:36:35.388Z,2.00
2022-09-02T08:37:35.369Z,2.10
2022-09-02T08:38:35.364Z,2.10
2022-09-02T08:39:35.353Z,2.20
2022-09-02T08:40:35.375Z,2.00
2022-09-02T08:41:35.319Z,2.00
2022-09-02T08:42:35.418Z,2.00
2022-09-02T08:43:35.297Z,2.10
2022-09-02T08:44:35.326Z,2.10
2022-09-02T08:45:35.307Z,2.50
2022-09-02T08:46:35.255Z,2.20
2022-09-02T08:47:35.247Z,1.80
2022-09-02T08:48:35.265Z,2.10
2022-09-02T08:49:35.326Z,2.10
2022-09-02T08:50:35.249Z,2.00
2022-09-02T08:51:37.202Z,2.40
2022-09-02T08:52:35.243Z,1.80
2022-09-02T08:53:35.193Z,1.70
2022-09-02T08:54:35.135Z,1.70
2022-09-02T08:55:35.161Z,1.90
2022-09-02T08:56:35.116Z,2.00
2022-09-02T08:57:35.155Z,1.80
2022-09-02T08:58:36.111Z,2.00
2022-09-02T08:59:35.164Z,1.80
2022-09-02T09:00:35.094Z,1.50
2022-09-02T09:01:35.116Z,1.70
2022-09-02T09:02:35.079Z,1.60
2022-09-02T09:03:35.024Z,1.70
2022-09-02T09:04:35.021Z,1.60
2022-09-02T09:05:34.993Z,1.40
2022-09-02T09:06:35.015Z,1.80
2022-09-02T09:08:35.025Z,1.60
2022-09-02T09:09:34.953Z,1.70
2022-09-02T09:10:34.922Z,1.60
2022-09-02T09:11:34.966Z,1.80
2022-09-02T09:12:34.900Z,1.50
2022-09-02T09:13:38.250Z,1.60
2022-09-02T09:14:35.921Z,1.60
2022-09-02T09:15:34.881Z,1.70
2022-09-02T09:16:34.944Z,1.70
2022-09-02T09:17:34.909Z,1.60
2022-09-02T09:18:34.853Z,1.50
2022-09-02T09:20:55.794Z,1.40
2022-09-02T09:21:54.708Z,1.40
2022-09-02T09:22:53.994Z,1.50
2022-09-02T09:23:53.986Z,1.40
2022-09-02T09:24:54.123Z,1.40
2022-09-02T09:25:54.594Z,1.50
2022-09-02T09:26:53.997Z,1.30
2022-09-02T09:27:53.964Z,1.20
2022-09-02T09:28:53.954Z,1.40
2022-09-02T09:29:53.939Z,1.40
2022-09-02T09:30:54.582Z,1.30
2022-09-02T09:31:54.232Z,1.40
2022-09-02T09:32:53.873Z,1.20
2022-09-02T09:33:53.853Z,1.30
2022-09-02T09:34:53.883Z,1.50
2022-09-02T09:35:54.093Z,1.40
2022-09-02T09:36:53.853Z,1.40
2022-09-02T09:37:53.802Z,1.20
2022-09-02T09:38:53.811Z,1.10
2022-09-02T09:39:53.821Z,1.10
2022-09-02T09:40:54.014Z,1.30
2022-09-02T09:41:53.751Z,1.40
2022-09-02T09:42:53.762Z,1.30
2022-09-02T09:43:53.729Z,1.40
2022-09-02T09:44:53.913Z,1.20
2022-09-02T09:45:53.833Z,1.30
2022-09-02T09:46:53.799Z,1.30
2022-09-02T09:47:58.454Z,1.00
2022-09-02T09:48:54.670Z,1.20
2022-09-02T09:49:53.719Z,1.00
2022-09-02T09:50:53.740Z,1.00
2022-09-02T09:51:53.630Z,1.20
2022-09-02T09:52:53.660Z,1.10
2022-09-02T09:53:53.606Z,1.20
2022-09-02T09:54:53.593Z,1.10
2022-09-02T09:55:53.589Z,1.30
2022-09-02T09:56:53.580Z,1.20
2022-09-02T09:57:53.604Z,0.90
2022-09-02T09:58:53.625Z,1.00
2022-09-02T09:59:53.559Z,1.20
2022-09-02T10:00:53.577Z,1.10
2022-09-02T10:01:53.649Z,1.30
2022-09-02T10:02:53.523Z,1.00
2022-09-02T10:03:53.508Z,1.00
2022-09-02T10:04:53.564Z,1.00
2022-09-02T10:05:53.454Z,1.00
2022-09-02T10:06:53.434Z,1.00
2022-09-02T10:07:53.435Z,1.10
2022-09-02T10:08:53.443Z,1.30
2022-09-02T10:09:53.417Z,1.20
2022-09-02T10:10:53.462Z,1.00
2022-09-02T10:11:53.453Z,1.00
2022-09-02T10:12:53.384Z,1.00
2022-09-02T10:13:53.392Z,1.40
2022-09-02T10:14:53.344Z,1.00
2022-09-02T10:15:53.361Z,1.10
2022-09-02T10:16:53.371Z,1.10
2022-09-02T10:17:53.289Z,1.10
2022-09-02T10:18:53.294Z,1.20
2022-09-02T10:19:53.317Z,1.20
2022-09-02T10:21:54.258Z,0.90
2022-09-02T10:22:59.353Z,0.90
2022-09-02T10:23:54.354Z,1.10
2022-09-02T10:24:53.202Z,1.00
2022-09-02T10:25:53.203Z,0.90
2022-09-02T10:26:53.252Z,0.90
2022-09-02T10:27:53.183Z,0.90
2022-09-02T10:28:53.168Z,0.90
2022-09-02T10:29:53.201Z,0.90
2022-09-02T10:30:53.178Z,0.90
2022-09-02T10:31:53.145Z,0.90
2022-09-02T10:32:53.171Z,0.90
2022-09-02T10:33:53.160Z,0.80
2022-09-02T10:34:53.092Z,1.20
2022-09-02T10:35:53.130Z,0.70
2022-09-02T10:36:53.061Z,0.90
2022-09-02T10:37:53.050Z,0.90
2022-09-02T10:38:53.021Z,0.70
2022-09-02T10:39:53.052Z,0.90
2022-09-02T10:40:53.078Z,1.00
2022-09-02T10:41:53.074Z,0.90
2022-09-02T10:42:52.990Z,0.90
2022-09-02T10:43:57.555Z,1.00
2022-09-02T10:44:56.939Z,0.90
2022-09-02T10:45:53.940Z,0.80
2022-09-02T10:46:52.961Z,1.00
2022-09-02T10:48:52.974Z,0.90
2022-09-02T10:49:52.933Z,0.90
2022-09-02T10:50:52.878Z,1.10
2022-09-02T10:51:53.190Z,0.80
2022-09-02T10:52:52.906Z,0.90
2022-09-02T10:53:52.858Z,0.80
2022-09-02T10:54:52.877Z,0.90
2022-09-02T10:55:52.982Z,1.00
2022-09-02T10:56:52.797Z,0.80
2022-09-02T10:57:52.817Z,1.10
2022-09-02T10:58:52.811Z,0.90
2022-09-02T10:59:52.823Z,1.20
2022-09-02T11:00:52.885Z,0.90
2022-09-02T11:01:52.776Z,1.00
2022-09-02T11:02:52.766Z,0.90
2022-09-02T11:03:52.761Z,1.00
2022-09-02T11:04:55.235Z,0.80
2022-09-02T11:05:52.706Z,0.90
2022-09-02T11:07:02.450Z,0.90
2022-09-02T11:07:53.666Z,0.80
2022-09-02T11:08:52.644Z,0.80
2022-09-02T11:09:52.648Z,0.90
2022-09-02T11:10:52.666Z,0.80
2022-09-02T11:11:53.406Z,0.90
2022-09-02T11:12:52.614Z,0.70
2022-09-02T11:13:52.602Z,0.90
2022-09-02T11:14:52.612Z,0.90
2022-09-02T11:15:52.679Z,1.00
2022-09-02T11:16:52.573Z,0.80
2022-09-02T11:17:52.586Z,0.70
2022-09-02T11:18:52.523Z,1.00
2022-09-02T11:19:52.542Z,0.80
2022-09-02T11:20:52.513Z,0.90
2022-09-02T11:21:52.628Z,0.90
2022-09-02T11:22:54.270Z,0.90
2022-09-02T11:23:52.461Z,0.80
2022-09-02T11:24:52.600Z,0.90
2022-09-02T11:25:52.502Z,1.30
2022-09-02T11:26:52.431Z,0.90
2022-09-02T11:27:52.455Z,0.80
2022-09-02T11:28:52.423Z,0.90
2022-09-02T11:29:52.450Z,0.80
2022-09-02T11:30:52.402Z,0.90
2022-09-02T11:31:52.406Z,0.80
2022-09-02T11:32:52.354Z,1.00
2022-09-02T11:33:52.397Z,0.90
2022-09-02T11:34:52.330Z,0.70
2022-09-02T11:35:52.398Z,0.60
2022-09-02T11:36:52.299Z,0.80
2022-09-02T11:37:53.397Z,0.90
2022-09-02T11:38:52.336Z,0.90
2022-09-02T11:39:56.502Z,0.80
2022-09-02T11:41:53.311Z,0.90
2022-09-02T11:42:52.318Z,1.10
2022-09-02T11:43:52.289Z,0.80
2022-09-02T11:44:53.057Z,0.90
2022-09-02T11:45:52.269Z,0.70
2022-09-02T11:46:52.243Z,0.90
2022-09-02T11:47:52.165Z,0.80
2022-09-02T11:48:52.269Z,0.70
2022-09-02T11:49:52.125Z,1.20
2022-09-02T11:50:52.133Z,0.80
2022-09-02T11:51:52.137Z,0.80
2022-09-02T11:52:52.098Z,0.70
2022-09-02T11:53:54.990Z,0.70
2022-09-02T11:54:52.084Z,0.70
2022-09-02T11:55:52.054Z,0.70
2022-09-02T11:56:52.057Z,0.60
2022-09-02T11:57:52.364Z,0.50
2022-09-02T11:58:52.036Z,0.70
2022-09-02T11:59:52.020Z,0.70
2022-09-02T12:00:52.003Z,0.60
2022-09-02T12:01:51.994Z,0.80
2022-09-02T12:02:51.993Z,0.70
2022-09-02T12:04:39.784Z,0.90
2022-09-02T12:05:00.244Z,0.80
2022-09-02T12:05:53.054Z,0.80
2022-09-02T12:06:51.991Z,0.80
2022-09-02T12:07:51.977Z,0.80
2022-09-02T12:08:51.960Z,0.60
2022-09-02T12:09:51.883Z,0.70
2022-09-02T12:10:51.896Z,1.10
2022-09-02T12:11:51.937Z,0.60
2022-09-02T12:12:52.098Z,0.90
2022-09-02T12:13:51.851Z,0.70
2022-09-02T12:14:51.898Z,0.70
2022-09-02T12:15:51.868Z,0.80
2022-09-02T12:16:51.800Z,0.80
2022-09-02T12:17:51.854Z,0.70
2022-09-02T12:18:51.772Z,0.80
2022-09-02T12:19:51.761Z,0.70
2022-09-02T12:20:51.744Z,0.80
2022-09-02T12:21:51.751Z,0.80
2022-09-02T12:22:51.809Z,0.70
2022-09-02T12:23:51.714Z,0.90
2022-09-02T12:24:51.713Z,0.80
2022-09-02T12:25:51.739Z,0.80
2022-09-02T12:26:51.738Z,0.90
2022-09-02T12:27:51.669Z,0.70
2022-09-02T12:28:51.659Z,0.80
2022-09-02T12:29:52.207Z,0.80
2022-09-02T12:30:51.638Z,0.70
2022-09-02T12:31:51.651Z,0.90
2022-09-02T12:32:51.590Z,0.70
2022-09-02T12:33:51.599Z,0.80
2022-09-02T12:34:51.587Z,0.70
2022-09-02T12:35:51.569Z,0.90
2022-09-02T12:36:51.572Z,0.90
2022-09-02T12:37:51.538Z,0.80
2022-09-02T12:38:51.539Z,0.70
2022-09-02T12:39:51.497Z,0.90
2022-09-02T12:40:51.537Z,0.70
2022-09-02T12:41:51.544Z,0.80
2022-09-02T12:42:51.531Z,1.00
2022-09-02T12:43:51.473Z,0.70
2022-09-02T12:44:51.428Z,0.60
2022-09-02T12:45:51.441Z,0.80
2022-09-02T12:46:51.543Z,0.70
2022-09-02T12:47:51.468Z,0.80
2022-09-02T12:48:51.383Z,0.80
2022-09-02T12:49:51.394Z,0.60
2022-09-02T12:50:51.376Z,0.90
2022-09-02T12:51:51.374Z,0.80
2022-09-02T12:52:51.375Z,1.00
2022-09-02T12:53:51.345Z,0.90
2022-09-02T12:54:51.315Z,0.70
2022-09-02T12:55:51.345Z,0.90
2022-09-02T12:56:51.284Z,0.90
2022-09-02T12:57:51.347Z,1.00
2022-09-02T12:58:51.255Z,0.80
2022-09-02T12:59:51.252Z,0.80
2022-09-02T13:00:51.318Z,0.70
2022-09-02T13:01:51.338Z,1.00
2022-09-02T13:02:51.251Z,0.80
2022-09-02T13:03:51.245Z,1.00
2022-09-02T13:04:51.196Z,0.70
2022-09-02T13:05:51.210Z,1.00
2022-09-02T13:06:51.155Z,1.00
2022-09-02T13:07:51.195Z,1.10
2022-09-02T13:08:51.161Z,1.00
2022-09-02T13:09:51.123Z,1.10
2022-09-02T13:10:51.155Z,0.90
2022-09-02T13:11:51.160Z,0.90
2022-09-02T13:12:51.082Z,1.00
2022-09-02T13:13:51.074Z,0.90
2022-09-02T13:14:51.056Z,1.00
2022-09-02T13:15:51.121Z,0.80
2022-09-02T13:16:51.074Z,0.80
2022-09-02T13:17:51.022Z,0.90
2022-09-02T13:18:51.311Z,1.20
2022-09-02T13:19:51.004Z,1.00
2022-09-02T13:20:55.643Z,0.70
2022-09-02T13:21:51.990Z,0.90
2022-09-02T13:22:50.951Z,0.80
2022-09-02T13:23:50.993Z,0.90
2022-09-02T13:24:50.973Z,1.20
2022-09-02T13:25:50.945Z,1.00
2022-09-02T13:26:50.913Z,0.90